Time;durP1;ratioP1;P1;durP2;ratioP2;P2;SDS_P1;SDS_P2;PMS_P1;PMS_P2;Temp;Humidity;BMP_temperature;BMP_pressure;BME280_temperature;BME280_humidity;BME280_pressure;Samples;Min_cycle;Max_cycle;Signal;HPM_P1;HPM_P2
2024/01/19 00:01:10;;;;;;;;;;;-1.60;99.90;;;;;;5075574;28;19924;-66
2024/01/19 00:03:36;;;;;;;;;;;-1.50;99.90;;;;;;5073165;28;19916;-65
2024/01/19 00:06:02;;;;;;;;;;;-1.40;99.90;;;;;;5078026;28;19920;-65
2024/01/19 00:08:27;;;;;;;;;;;-1.40;99.90;;;;;;5075160;28;19923;-65
2024/01/19 00:10:53;;;;;;;;;;;-1.40;99.90;;;;;;5075561;28;19916;-66
2024/01/19 00:13:19;;;;;;;;;;;-1.40;99.90;;;;;;5074175;28;20539;-65
2024/01/19 00:15:44;;;;;;;;;;;-1.40;99.90;;;;;;5082097;28;19999;-65
2024/01/19 00:18:10;;;;;;;;;;;-1.50;99.90;;;;;;5075366;28;19927;-65
2024/01/19 00:20:36;;;;;;;;;;;-1.50;99.90;;;;;;5083296;28;20463;-65
2024/01/19 00:23:01;;;;;;;;;;;-1.60;99.90;;;;;;5070947;28;19924;-65
2024/01/19 00:25:27;;;;;;;;;;;-1.60;99.90;;;;;;5072716;28;19981;-65
2024/01/19 00:27:53;;;;;;;;;;;-1.70;99.90;;;;;;5073782;28;19927;-65
2024/01/19 00:30:19;;;;;;;;;;;-1.70;99.90;;;;;;5080532;28;20281;-65
2024/01/19 00:32:44;;;;;;;;;;;-1.80;99.90;;;;;;5071481;28;19967;-65
2024/01/19 00:35:10;;;;;;;;;;;-1.80;99.90;;;;;;5080581;28;20277;-65
2024/01/19 00:37:35;;;;;;;;;;;-1.80;99.90;;;;;;5083715;28;19920;-65
2024/01/19 00:40:01;;;;;;;;;;;-1.80;99.90;;;;;;5053212;28;20374;-65
2024/01/19 00:42:27;;;;;;;;;;;-1.80;99.90;;;;;;5053542;28;19948;-65
2024/01/19 00:44:52;;;;;;;;;;;-1.80;99.90;;;;;;5070731;28;19920;-65
2024/01/19 00:47:18;;;;;;;;;;;-1.80;99.90;;;;;;5069532;28;19916;-65
2024/01/19 00:49:44;;;;;;;;;;;-1.90;99.90;;;;;;5073702;28;20385;-65
2024/01/19 00:52:10;;;;;;;;;;;-1.80;99.90;;;;;;5071377;28;19966;-66
2024/01/19 00:54:36;;;;;;;;;;;-1.80;99.90;;;;;;5070721;28;20316;-65
2024/01/19 00:57:02;;;;;;;;;;;-1.80;99.90;;;;;;5073582;28;20068;-65
2024/01/19 00:59:28;;;;;;;;;;;-1.90;99.90;;;;;;5072734;28;19916;-65
2024/01/19 01:01:53;;;;;;;;;;;-1.90;99.90;;;;;;5070824;28;19969;-65
2024/01/19 01:04:19;;;;;;;;;;;-1.90;99.90;;;;;;5076093;28;19962;-65
2024/01/19 01:06:45;;;;;;;;;;;-1.90;99.90;;;;;;5073126;28;20200;-65
2024/01/19 01:09:11;;;;;;;;;;;-1.90;99.90;;;;;;5079099;28;19917;-65
2024/01/19 01:11:37;;;;;;;;;;;-1.90;99.90;;;;;;5078279;28;19989;-65
2024/01/19 01:14:03;;;;;;;;;;;-1.90;99.90;;;;;;5079698;28;19955;-65
2024/01/19 01:16:29;;;;;;;;;;;-1.80;99.90;;;;;;5077253;28;20396;-65
2024/01/19 01:18:55;;;;;;;;;;;-1.80;99.90;;;;;;5074269;28;19924;-65
2024/01/19 01:21:21;;;;;;;;;;;-1.80;99.90;;;;;;5076697;28;20292;-65
2024/01/19 01:23:47;;;;;;;;;;;-1.80;99.90;;;;;;5072857;28;19917;-65
2024/01/19 01:26:12;;;;;;;;;;;-1.80;99.90;;;;;;5071191;28;20296;-65
2024/01/19 01:28:38;;;;;;;;;;;-1.80;99.90;;;;;;5070029;28;19924;-65
2024/01/19 01:31:03;;;;;;;;;;;-1.70;99.90;;;;;;5071937;28;19920;-65
2024/01/19 01:33:29;;;;;;;;;;;-1.70;99.90;;;;;;5078902;28;20258;-65
2024/01/19 01:35:55;;;;;;;;;;;-1.70;99.90;;;;;;5075907;28;19947;-65
2024/01/19 01:38:20;;;;;;;;;;;-1.70;99.90;;;;;;5074603;28;19964;-65
2024/01/19 01:40:46;;;;;;;;;;;-1.60;99.90;;;;;;5073437;28;19935;-65
2024/01/19 01:43:18;;;;;;;;;;;-1.60;99.90;;;;;;5069043;28;20288;-65
2024/01/19 01:45:45;;;;;;;;;;;-1.50;99.90;;;;;;5069614;28;20421;-65
2024/01/19 01:48:11;;;;;;;;;;;-1.40;99.90;;;;;;5078043;28;20047;-65
2024/01/19 01:50:36;;;;;;;;;;;-1.40;99.90;;;;;;5073849;28;19916;-65
2024/01/19 01:53:02;;;;;;;;;;;-1.30;99.90;;;;;;5078085;28;19922;-65
2024/01/19 01:55:28;;;;;;;;;;;-1.30;99.90;;;;;;5070669;28;19916;-65
2024/01/19 01:57:54;;;;;;;;;;;-1.20;99.90;;;;;;5071314;28;19924;-65
2024/01/19 02:00:20;;;;;;;;;;;-1.20;99.90;;;;;;5071095;28;20412;-65
2024/01/19 02:02:46;;;;;;;;;;;-1.20;99.90;;;;;;5070640;28;19922;-65
2024/01/19 02:05:12;;;;;;;;;;;-1.20;99.90;;;;;;5072357;28;19923;-65
2024/01/19 02:07:38;;;;;;;;;;;-1.30;99.90;;;;;;5071338;28;19916;-65
2024/01/19 02:10:04;;;;;;;;;;;-1.20;99.90;;;;;;5076165;28;19931;-65
2024/01/19 02:12:29;;;;;;;;;;;-1.10;99.90;;;;;;5054166;28;19963;-65
2024/01/19 02:14:58;;;;;;;;;;;-1.10;99.90;;;;;;5071366;28;20430;-65
2024/01/19 02:17:25;;;;;;;;;;;-1.00;99.90;;;;;;5071476;28;19974;-65
2024/01/19 02:19:51;;;;;;;;;;;-0.90;99.90;;;;;;5053617;28;19967;-65
2024/01/19 02:22:16;;;;;;;;;;;-0.90;99.90;;;;;;5073227;28;20417;-65
2024/01/19 02:24:43;;;;;;;;;;;-0.80;99.90;;;;;;5075966;28;19943;-65
2024/01/19 02:27:08;;;;;;;;;;;-0.80;99.90;;;;;;5070255;28;20375;-65
2024/01/19 02:29:34;;;;;;;;;;;-0.80;99.90;;;;;;5067707;28;19916;-65
2024/01/19 02:32:00;;;;;;;;;;;-0.80;99.90;;;;;;5074696;28;19923;-65
2024/01/19 02:34:25;;;;;;;;;;;-0.90;99.90;;;;;;5074867;28;19916;-65
2024/01/19 02:36:51;;;;;;;;;;;-0.90;99.90;;;;;;5075698;28;20369;-65
2024/01/19 02:39:17;;;;;;;;;;;-1.00;99.90;;;;;;5077767;28;19916;-65
2024/01/19 02:41:43;;;;;;;;;;;-1.10;99.90;;;;;;5079697;28;20239;-65
2024/01/19 02:44:08;;;;;;;;;;;-1.20;99.90;;;;;;5077119;28;20208;-65
2024/01/19 02:46:38;;;;;;;;;;;-1.30;99.90;;;;;;5074783;28;19939;-64
2024/01/19 02:49:04;;;;;;;;;;;-1.30;99.90;;;;;;5075206;28;19931;-65
2024/01/19 02:51:29;;;;;;;;;;;-1.40;99.90;;;;;;5075625;28;19916;-65
2024/01/19 02:53:55;;;;;;;;;;;-1.50;99.90;;;;;;5071230;28;19964;-64
2024/01/19 02:56:21;;;;;;;;;;;-1.50;99.90;;;;;;5076568;28;19916;-65
2024/01/19 02:58:47;;;;;;;;;;;-1.50;99.90;;;;;;5075247;28;19916;-64
2024/01/19 03:01:12;;;;;;;;;;;-1.60;99.90;;;;;;5075357;28;19923;-64
2024/01/19 03:03:38;;;;;;;;;;;-1.60;99.90;;;;;;5080013;28;19974;-65
2024/01/19 03:06:04;;;;;;;;;;;-1.70;99.90;;;;;;5072847;28;20510;-65
2024/01/19 03:08:29;;;;;;;;;;;-1.70;99.90;;;;;;5072654;28;19924;-64
2024/01/19 03:10:55;;;;;;;;;;;-1.80;99.90;;;;;;5074211;28;19925;-64
2024/01/19 03:13:21;;;;;;;;;;;-1.80;99.90;;;;;;5079799;28;19916;-64
2024/01/19 03:15:46;;;;;;;;;;;-1.80;99.90;;;;;;5075510;28;19916;-64
2024/01/19 03:18:12;;;;;;;;;;;-1.80;99.90;;;;;;5079497;28;19926;-64
2024/01/19 03:20:38;;;;;;;;;;;-1.80;99.90;;;;;;5075004;28;20195;-64
2024/01/19 03:23:03;;;;;;;;;;;-1.70;99.90;;;;;;5079760;28;19920;-64
2024/01/19 03:25:29;;;;;;;;;;;-1.70;99.90;;;;;;5077560;28;19920;-64
2024/01/19 03:27:54;;;;;;;;;;;-1.60;99.90;;;;;;5073144;28;20404;-64
2024/01/19 03:30:20;;;;;;;;;;;-1.60;99.90;;;;;;5072502;28;19923;-64
2024/01/19 03:32:46;;;;;;;;;;;-1.50;99.90;;;;;;5073324;28;19978;-65
2024/01/19 03:35:11;;;;;;;;;;;-1.50;99.90;;;;;;5077015;28;20022;-64
2024/01/19 03:37:37;;;;;;;;;;;-1.40;99.90;;;;;;5075456;28;19919;-64
2024/01/19 03:40:06;;;;;;;;;;;-1.30;99.90;;;;;;5073268;28;19920;-65
2024/01/19 03:42:32;;;;;;;;;;;-1.30;99.90;;;;;;5076066;28;20444;-65
2024/01/19 03:44:57;;;;;;;;;;;-1.20;99.90;;;;;;5070138;28;19964;-65
2024/01/19 03:47:23;;;;;;;;;;;-1.20;99.90;;;;;;5056930;28;20373;-65
2024/01/19 03:49:48;;;;;;;;;;;-1.20;99.90;;;;;;5074668;28;20023;-65
2024/01/19 03:52:16;;;;;;;;;;;-1.20;99.90;;;;;;5076583;28;19924;-65
2024/01/19 03:54:41;;;;;;;;;;;-1.20;99.90;;;;;;5078663;28;19916;-65
2024/01/19 03:57:07;;;;;;;;;;;-1.20;99.90;;;;;;5076939;28;20270;-65
2024/01/19 03:59:33;;;;;;;;;;;-1.20;99.90;;;;;;5078459;28;19923;-65
2024/01/19 04:01:59;;;;;;;;;;;-1.20;99.90;;;;;;5072412;28;19916;-65
2024/01/19 04:04:26;;;;;;;;;;;-1.20;99.90;;;;;;5081011;28;19927;-65
2024/01/19 04:06:52;;;;;;;;;;;-1.10;99.90;;;;;;5075874;28;19916;-65
2024/01/19 04:09:18;;;;;;;;;;;-1.10;99.90;;;;;;5075671;28;19924;-65
2024/01/19 04:11:44;;;;;;;;;;;-1.10;99.90;;;;;;5072440;28;19917;-65
2024/01/19 04:14:10;;;;;;;;;;;-1.00;99.90;;;;;;5075258;28;19924;-65
2024/01/19 04:16:36;;;;;;;;;;;-1.00;99.90;;;;;;5073702;28;19998;-65
2024/01/19 04:19:02;;;;;;;;;;;-1.00;99.90;;;;;;5070705;28;19916;-65
2024/01/19 04:21:28;;;;;;;;;;;-1.00;99.90;;;;;;5077877;28;20006;-65
2024/01/19 04:23:54;;;;;;;;;;;-0.90;99.90;;;;;;5075472;28;20104;-65
2024/01/19 04:26:19;;;;;;;;;;;-0.90;99.90;;;;;;5058484;28;20420;-65
2024/01/19 04:28:45;;;;;;;;;;;-1.00;99.90;;;;;;5057069;28;19920;-65
2024/01/19 04:31:11;;;;;;;;;;;-1.00;99.90;;;;;;5073143;28;19917;-65
2024/01/19 04:33:36;;;;;;;;;;;-1.10;99.90;;;;;;5075143;28;20266;-65
2024/01/19 04:36:02;;;;;;;;;;;-1.10;99.90;;;;;;5073878;28;19969;-65
2024/01/19 04:38:27;;;;;;;;;;;-1.10;99.90;;;;;;5073169;28;20415;-65
2024/01/19 04:40:53;;;;;;;;;;;-1.10;99.90;;;;;;5058178;28;20431;-65
2024/01/19 04:43:19;;;;;;;;;;;-1.10;99.90;;;;;;5071174;28;19916;-65
2024/01/19 04:45:45;;;;;;;;;;;-1.10;99.90;;;;;;5070587;28;19932;-65
2024/01/19 04:48:10;;;;;;;;;;;-1.10;99.90;;;;;;5068885;28;20400;-65
2024/01/19 04:50:38;;;;;;;;;;;-1.20;99.90;;;;;;5052598;28;20003;-65
2024/01/19 04:53:04;;;;;;;;;;;-1.20;99.90;;;;;;5077367;28;20425;-65
2024/01/19 04:55:29;;;;;;;;;;;-1.30;99.90;;;;;;5069538;28;20210;-65
2024/01/19 04:57:55;;;;;;;;;;;-1.40;99.90;;;;;;5078903;28;20339;-65
2024/01/19 05:00:22;;;;;;;;;;;-1.40;99.90;;;;;;5071361;28;19916;-64
2024/01/19 05:02:47;;;;;;;;;;;-1.50;99.90;;;;;;5073464;28;19965;-65
2024/01/19 05:05:13;;;;;;;;;;;-1.50;99.90;;;;;;5070701;28;19928;-65
2024/01/19 05:07:39;;;;;;;;;;;-1.60;99.90;;;;;;5058176;28;19922;-65
2024/01/19 05:10:05;;;;;;;;;;;-1.60;99.90;;;;;;5074426;28;19922;-65
2024/01/19 05:12:31;;;;;;;;;;;-1.60;99.90;;;;;;5073537;28;19962;-65
2024/01/19 05:14:57;;;;;;;;;;;-1.70;99.90;;;;;;5076336;28;19916;-66
2024/01/19 05:17:23;;;;;;;;;;;-1.70;99.90;;;;;;5055434;28;19989;-65
2024/01/19 05:19:48;;;;;;;;;;;-1.70;99.90;;;;;;5076056;28;19978;-65
2024/01/19 05:22:14;;;;;;;;;;;-1.70;99.90;;;;;;5073575;28;19946;-65
2024/01/19 05:24:40;;;;;;;;;;;-1.70;99.90;;;;;;5074192;28;19927;-65
2024/01/19 05:27:06;;;;;;;;;;;-1.80;99.90;;;;;;5071481;28;20297;-65
2024/01/19 05:29:31;;;;;;;;;;;-1.70;99.90;;;;;;5050171;28;19924;-65
2024/01/19 05:31:57;;;;;;;;;;;-1.80;99.90;;;;;;5071426;28;19923;-65
2024/01/19 05:34:22;;;;;;;;;;;-1.80;99.90;;;;;;5070107;28;19916;-65
2024/01/19 05:36:48;;;;;;;;;;;-1.80;99.90;;;;;;5079124;28;19916;-65
2024/01/19 05:39:14;;;;;;;;;;;-1.80;99.90;;;;;;5076496;28;19916;-65
2024/01/19 05:41:39;;;;;;;;;;;-1.80;99.90;;;;;;5071623;28;20412;-65
2024/01/19 05:44:05;;;;;;;;;;;-1.90;99.90;;;;;;5059846;28;20373;-65
2024/01/19 05:46:31;;;;;;;;;;;-1.90;99.90;;;;;;5075476;28;19917;-65
2024/01/19 05:48:56;;;;;;;;;;;-1.90;99.90;;;;;;5080159;28;19916;-65
2024/01/19 05:51:22;;;;;;;;;;;-1.90;99.90;;;;;;5109093;27;19916;-65
2024/01/19 05:53:48;;;;;;;;;;;-1.90;99.90;;;;;;5073851;28;20340;-65
2024/01/19 05:56:14;;;;;;;;;;;-1.90;99.90;;;;;;5071999;28;19926;-65
2024/01/19 05:58:39;;;;;;;;;;;-1.90;99.90;;;;;;5074945;28;19978;-65
2024/01/19 06:01:05;;;;;;;;;;;-1.90;99.90;;;;;;5071132;28;19977;-65
2024/01/19 06:03:34;;;;;;;;;;;-2.00;99.90;;;;;;5071767;28;19938;-65
2024/01/19 06:06:00;;;;;;;;;;;-2.00;99.90;;;;;;5069944;28;19926;-65
2024/01/19 06:08:26;;;;;;;;;;;-1.90;99.90;;;;;;5076639;28;19916;-65
2024/01/19 06:10:51;;;;;;;;;;;-2.00;99.90;;;;;;5073422;28;20362;-65
2024/01/19 06:13:17;;;;;;;;;;;-2.00;99.90;;;;;;5074412;28;20285;-65
2024/01/19 06:15:43;;;;;;;;;;;-2.00;99.90;;;;;;5074388;28;20154;-65
2024/01/19 06:18:08;;;;;;;;;;;-2.00;99.90;;;;;;5056047;28;19916;-65
2024/01/19 06:20:39;;;;;;;;;;;-2.00;99.90;;;;;;5071568;28;19917;-65
2024/01/19 06:23:04;;;;;;;;;;;-2.10;99.90;;;;;;5073054;28;20010;-65
2024/01/19 06:25:30;;;;;;;;;;;-2.10;99.90;;;;;;5074089;28;19966;-65
2024/01/19 06:27:59;;;;;;;;;;;-2.00;99.90;;;;;;5073002;28;19969;-65
2024/01/19 06:30:24;;;;;;;;;;;-2.00;99.90;;;;;;5055866;28;19984;-65
2024/01/19 06:32:50;;;;;;;;;;;-2.10;99.90;;;;;;5073468;28;20547;-65
2024/01/19 06:35:16;;;;;;;;;;;-2.00;99.90;;;;;;5074190;28;19923;-65
2024/01/19 06:37:41;;;;;;;;;;;-2.10;99.90;;;;;;5074045;28;19920;-65
2024/01/19 06:40:07;;;;;;;;;;;-2.10;99.90;;;;;;5072588;28;19916;-65
2024/01/19 06:42:33;;;;;;;;;;;-2.10;99.90;;;;;;5073113;28;19920;-65
2024/01/19 06:44:59;;;;;;;;;;;-2.10;99.90;;;;;;5072994;28;19921;-65
2024/01/19 06:47:24;;;;;;;;;;;-2.20;99.90;;;;;;5081978;28;19920;-65
2024/01/19 06:49:50;;;;;;;;;;;-2.10;99.90;;;;;;5075416;28;19920;-65
2024/01/19 06:52:16;;;;;;;;;;;-2.10;99.90;;;;;;5081642;28;19917;-65
2024/01/19 06:54:41;;;;;;;;;;;-2.10;99.90;;;;;;5081716;28;19924;-65
2024/01/19 06:57:07;;;;;;;;;;;-2.10;99.90;;;;;;5057479;28;19969;-65
2024/01/19 06:59:33;;;;;;;;;;;-2.00;99.90;;;;;;5076258;28;19924;-65
2024/01/19 07:01:58;;;;;;;;;;;-1.90;99.90;;;;;;5074727;28;20344;-65
2024/01/19 07:04:24;;;;;;;;;;;-1.80;99.90;;;;;;5074002;28;19928;-64
2024/01/19 07:06:50;;;;;;;;;;;-1.80;99.90;;;;;;5062082;28;20536;-65
2024/01/19 07:09:17;;;;;;;;;;;-1.70;99.90;;;;;;5060670;28;19917;-65
2024/01/19 07:11:42;;;;;;;;;;;-1.60;99.90;;;;;;5083390;28;19916;-65
2024/01/19 07:14:09;;;;;;;;;;;-1.50;99.90;;;;;;5084400;28;19922;-65
2024/01/19 07:16:41;;;;;;;;;;;-1.40;99.90;;;;;;5079069;28;19927;-64
2024/01/19 07:19:06;;;;;;;;;;;-1.30;99.90;;;;;;5057532;28;20008;-65
2024/01/19 07:21:36;;;;;;;;;;;-1.30;99.90;;;;;;5078934;28;20007;-64
2024/01/19 07:24:01;;;;;;;;;;;-1.20;99.90;;;;;;5090932;28;19991;-64
2024/01/19 07:26:27;;;;;;;;;;;-1.20;99.90;;;;;;5077973;28;20002;-65
2024/01/19 07:28:52;;;;;;;;;;;-1.20;99.90;;;;;;5078363;28;19917;-64
2024/01/19 07:31:18;;;;;;;;;;;-1.20;99.90;;;;;;5079804;28;19977;-64
2024/01/19 07:33:44;;;;;;;;;;;-1.30;99.90;;;;;;5073965;28;20011;-64
2024/01/19 07:36:15;;;;;;;;;;;-1.30;99.90;;;;;;5075485;28;19916;-64
2024/01/19 07:38:42;;;;;;;;;;;-1.40;99.90;;;;;;5071346;28;20381;-64
2024/01/19 07:41:08;;;;;;;;;;;-1.40;99.90;;;;;;5055163;28;19921;-64
2024/01/19 07:43:33;;;;;;;;;;;-1.40;99.90;;;;;;5070736;28;19967;-64
2024/01/19 07:45:59;;;;;;;;;;;-1.50;99.90;;;;;;5072416;28;20344;-64
2024/01/19 07:48:25;;;;;;;;;;;-1.50;99.90;;;;;;5071949;28;19967;-64
2024/01/19 07:50:51;;;;;;;;;;;-1.60;99.90;;;;;;5069569;28;20003;-64
2024/01/19 07:53:16;;;;;;;;;;;-1.60;99.90;;;;;;5070189;28;19952;-64
2024/01/19 07:55:42;;;;;;;;;;;-1.60;99.90;;;;;;5068386;28;19960;-64
2024/01/19 07:58:07;;;;;;;;;;;-1.60;99.90;;;;;;5071790;28;19917;-64
2024/01/19 08:00:33;;;;;;;;;;;-1.60;99.90;;;;;;5050431;28;20333;-65
2024/01/19 08:02:59;;;;;;;;;;;-1.60;99.90;;;;;;5069381;28;19920;-64
2024/01/19 08:05:24;;;;;;;;;;;-1.60;99.90;;;;;;5051686;28;19928;-64
2024/01/19 08:07:52;;;;;;;;;;;-1.60;99.90;;;;;;5067149;28;19916;-65
2024/01/19 08:10:18;;;;;;;;;;;-1.60;99.90;;;;;;5064625;28;19916;-64
2024/01/19 08:12:44;;;;;;;;;;;-1.50;99.90;;;;;;5064374;28;20357;-64
2024/01/19 08:15:10;;;;;;;;;;;-1.40;99.90;;;;;;5068786;28;19916;-64
2024/01/19 08:17:35;;;;;;;;;;;-1.40;99.90;;;;;;5069098;28;19916;-64
2024/01/19 08:20:01;;;;;;;;;;;-1.40;99.90;;;;;;5070291;28;20403;-64
2024/01/19 08:22:27;;;;;;;;;;;-1.30;99.90;;;;;;5066845;28;20031;-64
2024/01/19 08:24:53;;;;;;;;;;;-1.20;99.90;;;;;;5070278;28;19924;-64
2024/01/19 08:27:18;;;;;;;;;;;-1.10;99.90;;;;;;5069640;28;20364;-64
2024/01/19 08:29:47;;;;;;;;;;;-1.10;99.90;;;;;;5070294;28;19917;-64
2024/01/19 08:32:13;;;;;;;;;;;-1.00;99.90;;;;;;5070200;28;19994;-64
2024/01/19 08:34:39;;;;;;;;;;;-0.80;99.90;;;;;;5067917;28;20388;-64
2024/01/19 08:37:05;;;;;;;;;;;-0.70;99.90;;;;;;5070233;28;20384;-64
2024/01/19 08:39:30;;;;;;;;;;;-0.60;99.90;;;;;;5067567;28;20023;-64
2024/01/19 08:41:56;;;;;;;;;;;-0.60;99.90;;;;;;5067520;28;19920;-64
2024/01/19 08:44:22;;;;;;;;;;;-0.60;99.90;;;;;;5068728;28;20350;-64
2024/01/19 08:46:48;;;;;;;;;;;-0.60;99.90;;;;;;5069309;28;20424;-64
2024/01/19 08:49:14;;;;;;;;;;;-0.60;99.90;;;;;;5067086;28;19963;-65
2024/01/19 08:51:40;;;;;;;;;;;-0.60;99.90;;;;;;5066760;28;19923;-65
2024/01/19 08:54:06;;;;;;;;;;;-0.60;99.90;;;;;;5069807;28;20373;-64
2024/01/19 08:56:32;;;;;;;;;;;-0.70;99.90;;;;;;5069953;28;19923;-65
2024/01/19 08:58:57;;;;;;;;;;;-0.60;99.90;;;;;;5069031;28;19937;-65
2024/01/19 09:01:23;;;;;;;;;;;-0.50;99.90;;;;;;5069416;28;19920;-65
2024/01/19 09:03:49;;;;;;;;;;;-0.10;99.90;;;;;;5071730;28;19917;-65
2024/01/19 09:06:15;;;;;;;;;;;0.50;99.90;;;;;;5068728;28;19926;-65
2024/01/19 09:08:42;;;;;;;;;;;1.20;99.90;;;;;;5071209;28;19990;-65
2024/01/19 09:11:08;;;;;;;;;;;1.80;99.90;;;;;;5069705;28;20434;-64
2024/01/19 09:13:34;;;;;;;;;;;2.30;99.90;;;;;;5071486;28;19920;-64
2024/01/19 09:15:59;;;;;;;;;;;2.90;99.90;;;;;;5070140;28;19978;-64
2024/01/19 09:18:25;;;;;;;;;;;3.10;99.90;;;;;;5069904;28;20164;-64
2024/01/19 09:20:51;;;;;;;;;;;3.40;99.90;;;;;;5068717;28;19923;-64
2024/01/19 09:23:16;;;;;;;;;;;3.40;99.90;;;;;;5069576;28;19917;-64
2024/01/19 09:25:42;;;;;;;;;;;3.50;99.90;;;;;;5052771;28;19927;-64
2024/01/19 09:28:08;;;;;;;;;;;3.50;99.90;;;;;;5069637;28;19924;-64
2024/01/19 09:30:34;;;;;;;;;;;3.60;99.90;;;;;;5069897;28;20648;-64
2024/01/19 09:33:00;;;;;;;;;;;4.10;99.90;;;;;;5069801;28;19916;-64
2024/01/19 09:35:25;;;;;;;;;;;4.20;99.90;;;;;;5070829;28;19917;-64
2024/01/19 09:37:51;;;;;;;;;;;4.30;99.90;;;;;;5052760;28;19916;-64
2024/01/19 09:40:19;;;;;;;;;;;4.30;99.90;;;;;;5068069;28;19923;-64
2024/01/19 09:42:45;;;;;;;;;;;4.20;99.90;;;;;;5069913;28;19927;-64
2024/01/19 09:45:17;;;;;;;;;;;3.80;99.90;;;;;;5069529;28;19921;-64
2024/01/19 09:47:55;;;;;;;;;;;3.90;99.90;;;;;;5051821;28;20294;-64
2024/01/19 09:50:24;;;;;;;;;;;3.70;99.90;;;;;;5069571;28;19916;-64
2024/01/19 09:53:00;;;;;;;;;;;3.70;99.90;;;;;;5070236;28;19920;-64
2024/01/19 09:55:27;;;;;;;;;;;3.70;99.90;;;;;;5070728;28;19916;-64
2024/01/19 09:57:53;;;;;;;;;;;3.30;99.90;;;;;;5068512;28;19916;-64
2024/01/19 10:00:19;;;;;;;;;;;2.60;99.90;;;;;;5069196;28;20447;-64
2024/01/19 10:02:46;;;;;;;;;;;2.20;99.90;;;;;;5069104;28;19955;-64
2024/01/19 10:05:13;;;;;;;;;;;2.20;99.90;;;;;;5070643;28;20021;-64
2024/01/19 10:07:40;;;;;;;;;;;2.50;99.90;;;;;;5059559;28;19968;-64
2024/01/19 10:10:07;;;;;;;;;;;2.50;99.90;;;;;;5070620;28;20320;-64
2024/01/19 10:12:33;;;;;;;;;;;2.50;99.90;;;;;;5069543;28;19963;-64
2024/01/19 10:14:59;;;;;;;;;;;2.50;99.90;;;;;;5070720;28;20017;-64
2024/01/19 10:17:25;;;;;;;;;;;2.40;99.90;;;;;;5069240;28;19916;-64
2024/01/19 10:19:51;;;;;;;;;;;2.10;99.90;;;;;;5052582;28;19982;-64
2024/01/19 10:22:24;;;;;;;;;;;1.90;99.90;;;;;;5051927;28;19969;-64
2024/01/19 10:25:00;;;;;;;;;;;1.80;99.90;;;;;;5067245;28;19927;-64
2024/01/19 10:27:39;;;;;;;;;;;1.90;99.90;;;;;;5066373;28;20161;-64
2024/01/19 10:30:09;;;;;;;;;;;1.80;99.90;;;;;;5065727;28;20396;-64
2024/01/19 10:32:36;;;;;;;;;;;1.80;99.90;;;;;;5066600;28;19916;-64
2024/01/19 10:35:09;;;;;;;;;;;1.80;99.90;;;;;;5068754;28;19916;-64
2024/01/19 10:37:34;;;;;;;;;;;1.70;99.90;;;;;;5068370;28;19970;-64
2024/01/19 10:40:13;;;;;;;;;;;1.70;99.90;;;;;;5069198;28;19920;-64
2024/01/19 10:42:39;;;;;;;;;;;1.90;99.90;;;;;;5069617;28;19928;-64
2024/01/19 10:45:24;;;;;;;;;;;2.20;99.90;;;;;;5070311;28;19952;-64
2024/01/19 10:47:51;;;;;;;;;;;2.40;99.90;;;;;;5069960;28;20289;-64
2024/01/19 10:50:17;;;;;;;;;;;2.40;99.90;;;;;;5069103;28;19924;-64
2024/01/19 10:52:43;;;;;;;;;;;2.20;99.90;;;;;;5069837;28;20263;-64
2024/01/19 10:55:10;;;;;;;;;;;2.00;99.90;;;;;;5073585;28;19917;-64
2024/01/19 10:57:36;;;;;;;;;;;1.70;99.90;;;;;;5067749;28;19924;-64
2024/01/19 11:00:17;;;;;;;;;;;1.80;99.90;;;;;;5071129;28;19924;-65
2024/01/19 11:02:46;;;;;;;;;;;1.90;99.90;;;;;;5070551;28;20397;-64
2024/01/19 11:05:12;;;;;;;;;;;1.80;99.90;;;;;;5053238;28;19932;-64
2024/01/19 11:07:39;;;;;;;;;;;1.70;99.90;;;;;;5071944;28;19923;-64
2024/01/19 11:10:05;;;;;;;;;;;1.70;99.90;;;;;;5068653;28;19977;-64
2024/01/19 11:12:33;;;;;;;;;;;1.70;99.90;;;;;;5068839;28;19920;-64
2024/01/19 11:15:01;;;;;;;;;;;1.80;99.90;;;;;;5063045;28;19917;-64
2024/01/19 11:17:26;;;;;;;;;;;1.80;99.90;;;;;;5072307;28;20347;-64
2024/01/19 11:19:52;;;;;;;;;;;1.80;99.90;;;;;;5063555;28;19924;-64
2024/01/19 11:22:17;;;;;;;;;;;1.80;99.90;;;;;;5065984;28;19931;-64
2024/01/19 11:24:46;;;;;;;;;;;1.90;99.90;;;;;;5072626;28;19977;-64
2024/01/19 11:27:14;;;;;;;;;;;1.90;99.90;;;;;;5072385;28;20388;-64
2024/01/19 11:29:41;;;;;;;;;;;1.90;99.90;;;;;;5071620;28;19917;-64
2024/01/19 11:32:07;;;;;;;;;;;1.90;99.90;;;;;;5071542;28;19923;-64
2024/01/19 11:34:48;;;;;;;;;;;2.00;99.90;;;;;;5070994;28;20316;-64
2024/01/19 11:37:32;;;;;;;;;;;1.90;99.90;;;;;;5073355;28;19916;-64
2024/01/19 11:39:57;;;;;;;;;;;1.90;99.90;;;;;;5071865;28;19969;-64
2024/01/19 11:42:35;;;;;;;;;;;1.90;99.90;;;;;;5071692;28;20300;-64
2024/01/19 11:45:01;;;;;;;;;;;1.80;99.90;;;;;;5072560;28;20018;-64
2024/01/19 11:47:35;;;;;;;;;;;1.80;99.90;;;;;;5068199;28;20023;-64
2024/01/19 11:50:02;;;;;;;;;;;1.80;99.90;;;;;;5065691;28;19960;-64
2024/01/19 11:52:35;;;;;;;;;;;1.80;99.90;;;;;;5068441;28;19916;-64
2024/01/19 11:55:27;;;;;;;;;;;1.80;99.90;;;;;;5067281;28;19924;-64
2024/01/19 11:57:53;;;;;;;;;;;1.80;99.90;;;;;;5063254;28;20376;-64
2024/01/19 12:00:19;;;;;;;;;;;1.90;99.90;;;;;;5070847;28;19939;-64
2024/01/19 12:02:45;;;;;;;;;;;1.90;99.90;;;;;;5071157;28;20355;-64
2024/01/19 12:05:11;;;;;;;;;;;1.90;99.90;;;;;;5069912;28;19928;-64
2024/01/19 12:07:41;;;;;;;;;;;2.00;99.90;;;;;;5071816;28;19966;-64
2024/01/19 12:10:07;;;;;;;;;;;2.00;99.90;;;;;;5075786;28;19965;-64
2024/01/19 12:12:33;;;;;;;;;;;2.00;99.90;;;;;;5069450;28;19967;-64
2024/01/19 12:15:00;;;;;;;;;;;2.10;99.90;;;;;;5071806;28;20365;-64
2024/01/19 12:17:25;;;;;;;;;;;2.10;99.90;;;;;;5072169;28;19924;-64
2024/01/19 12:19:51;;;;;;;;;;;2.10;99.90;;;;;;5070688;28;19917;-64
2024/01/19 12:22:17;;;;;;;;;;;2.20;99.90;;;;;;5072490;28;19917;-64
2024/01/19 12:24:43;;;;;;;;;;;2.20;99.90;;;;;;5070397;28;19953;-64
2024/01/19 12:27:08;;;;;;;;;;;2.30;99.90;;;;;;5070127;28;19920;-64
2024/01/19 12:29:37;;;;;;;;;;;2.40;99.90;;;;;;5066190;28;20325;-64
2024/01/19 12:32:13;;;;;;;;;;;2.50;99.90;;;;;;5070856;28;20429;-64
2024/01/19 12:34:39;;;;;;;;;;;2.70;99.90;;;;;;5071950;28;19916;-64
2024/01/19 12:37:04;;;;;;;;;;;2.90;99.90;;;;;;5071987;28;19923;-64
2024/01/19 12:39:30;;;;;;;;;;;3.00;99.90;;;;;;5069003;28;19920;-64
2024/01/19 12:42:00;;;;;;;;;;;3.10;99.90;;;;;;5071610;28;19921;-64
2024/01/19 12:44:25;;;;;;;;;;;3.20;99.90;;;;;;5053907;28;19941;-64
2024/01/19 12:46:51;;;;;;;;;;;3.30;99.90;;;;;;5071610;28;20279;-64
2024/01/19 12:49:17;;;;;;;;;;;3.40;99.90;;;;;;5052991;28;20362;-64
2024/01/19 12:51:43;;;;;;;;;;;3.50;99.90;;;;;;5070287;28;20346;-64
2024/01/19 12:54:09;;;;;;;;;;;3.50;99.90;;;;;;5071510;28;19917;-64
2024/01/19 12:56:35;;;;;;;;;;;3.60;99.90;;;;;;5071412;28;20407;-64
2024/01/19 12:59:07;;;;;;;;;;;3.60;99.90;;;;;;5066837;28;19923;-64
2024/01/19 13:01:36;;;;;;;;;;;3.60;99.90;;;;;;5064126;28;20005;-64
2024/01/19 13:04:02;;;;;;;;;;;3.70;99.90;;;;;;5069406;28;20303;-64
2024/01/19 13:06:28;;;;;;;;;;;3.70;99.90;;;;;;5063452;28;19927;-64
2024/01/19 13:08:53;;;;;;;;;;;3.80;99.90;;;;;;5052489;28;20416;-64
2024/01/19 13:11:25;;;;;;;;;;;3.80;99.90;;;;;;5071355;28;19916;-64
2024/01/19 13:14:03;;;;;;;;;;;3.80;99.90;;;;;;5071454;28;19916;-64
2024/01/19 13:16:29;;;;;;;;;;;3.80;99.90;;;;;;5070060;28;20266;-64
2024/01/19 13:19:01;;;;;;;;;;;3.80;99.90;;;;;;5068974;28;19916;-64
2024/01/19 13:21:27;;;;;;;;;;;3.90;99.90;;;;;;5070309;28;20127;-64
2024/01/19 13:23:52;;;;;;;;;;;3.80;99.90;;;;;;5067032;28;19922;-64
2024/01/19 13:26:19;;;;;;;;;;;3.80;99.90;;;;;;5067466;28;19920;-64
2024/01/19 13:28:45;;;;;;;;;;;3.90;99.90;;;;;;5069837;28;20441;-64
2024/01/19 13:31:11;;;;;;;;;;;3.90;99.90;;;;;;5070631;28;19966;-64
2024/01/19 13:33:38;;;;;;;;;;;3.90;99.90;;;;;;5070811;28;19916;-65
2024/01/19 13:36:04;;;;;;;;;;;3.90;99.90;;;;;;5070649;28;19927;-64
2024/01/19 13:38:30;;;;;;;;;;;3.90;99.90;;;;;;5069517;28;19916;-64
2024/01/19 13:40:56;;;;;;;;;;;3.90;99.90;;;;;;5068782;28;20404;-64
2024/01/19 13:43:22;;;;;;;;;;;3.80;99.90;;;;;;5069294;28;19921;-64
2024/01/19 13:45:47;;;;;;;;;;;3.80;99.90;;;;;;5070513;28;20267;-64
2024/01/19 13:48:13;;;;;;;;;;;3.80;99.90;;;;;;5068948;28;19970;-64
2024/01/19 13:50:38;;;;;;;;;;;3.80;99.90;;;;;;5051974;28;20427;-65
2024/01/19 13:53:04;;;;;;;;;;;3.70;99.90;;;;;;5070805;28;19923;-64
2024/01/19 13:55:30;;;;;;;;;;;3.70;99.90;;;;;;5068412;28;19916;-64
2024/01/19 13:57:55;;;;;;;;;;;3.70;99.90;;;;;;5068643;28;20420;-64
2024/01/19 14:00:21;;;;;;;;;;;3.70;99.90;;;;;;5066759;28;19920;-64
2024/01/19 14:02:46;;;;;;;;;;;3.70;99.90;;;;;;5070283;28;19916;-64
2024/01/19 14:05:12;;;;;;;;;;;3.70;99.90;;;;;;5060696;28;19973;-65
2024/01/19 14:07:38;;;;;;;;;;;3.70;99.90;;;;;;5041351;28;19923;-65
2024/01/19 14:10:04;;;;;;;;;;;3.60;99.90;;;;;;5070286;28;19916;-65
2024/01/19 14:12:29;;;;;;;;;;;3.60;99.90;;;;;;5066822;28;20417;-65
2024/01/19 14:14:55;;;;;;;;;;;3.60;99.90;;;;;;5062289;28;19916;-65
2024/01/19 14:17:21;;;;;;;;;;;3.60;99.90;;;;;;5065091;28;20480;-65